sensor_id;sensor_type;location;lat;lon;timestamp;pressure;altitude;pressure_sealevel;temperature;humidity
63552;BME280;49698;48.072;7.800;2023-02-23T00:00:33;99102.00;;;9.78;89.75
63552;BME280;49698;48.072;7.800;2023-02-23T00:03:02;99102.81;;;9.78;89.66
63552;BME280;49698;48.072;7.800;2023-02-23T00:05:34;99096.66;;;9.78;89.63
63552;BME280;49698;48.072;7.800;2023-02-23T00:08:03;99096.66;;;9.78;89.61
63552;BME280;49698;48.072;7.800;2023-02-23T00:10:31;99098.22;;;9.79;89.43
63552;BME280;49698;48.072;7.800;2023-02-23T00:12:59;99100.41;;;9.77;89.86
63552;BME280;49698;48.072;7.800;2023-02-23T00:15:28;99099.31;;;9.78;89.62
63552;BME280;49698;48.072;7.800;2023-02-23T00:17:57;99092.88;;;9.79;89.83
63552;BME280;49698;48.072;7.800;2023-02-23T00:20:25;99091.28;;;9.78;89.57
63552;BME280;49698;48.072;7.800;2023-02-23T00:22:54;99101.22;;;9.77;89.88
63552;BME280;49698;48.072;7.800;2023-02-23T00:25:22;99098.22;;;9.79;89.93
63552;BME280;49698;48.072;7.800;2023-02-23T00:27:50;99083.22;;;9.78;89.40
63552;BME280;49698;48.072;7.800;2023-02-23T00:30:19;99085.91;;;9.78;89.86
63552;BME280;49698;48.072;7.800;2023-02-23T00:32:49;99091.28;;;9.78;89.81
63552;BME280;49698;48.072;7.800;2023-02-23T00:35:19;99087.50;;;9.79;89.58
63552;BME280;49698;48.072;7.800;2023-02-23T00:37:47;99087.78;;;9.77;89.50
63552;BME280;49698;48.072;7.800;2023-02-23T00:40:17;99092.38;;;9.77;89.81
63552;BME280;49698;48.072;7.800;2023-02-23T00:42:47;99088.88;;;9.76;89.80
63552;BME280;49698;48.072;7.800;2023-02-23T00:45:15;99085.41;;;9.76;89.77
63552;BME280;49698;48.072;7.800;2023-02-23T00:47:45;99087.25;;;9.75;89.88
63552;BME280;49698;48.072;7.800;2023-02-23T00:50:16;99086.47;;;9.75;89.82
63552;BME280;49698;48.072;7.800;2023-02-23T00:52:46;99078.72;;;9.73;89.95
63552;BME280;49698;48.072;7.800;2023-02-23T00:55:14;99088.66;;;9.73;90.15
63552;BME280;49698;48.072;7.800;2023-02-23T00:57:42;99084.66;;;9.70;90.17
63552;BME280;49698;48.072;7.800;2023-02-23T01:00:11;99082.75;;;9.71;90.53
63552;BME280;49698;48.072;7.800;2023-02-23T01:02:46;99083.84;;;9.70;90.25
63552;BME280;49698;48.072;7.800;2023-02-23T01:05:14;99077.94;;;9.68;90.57
63552;BME280;49698;48.072;7.800;2023-02-23T01:07:43;99074.47;;;9.67;90.42
63552;BME280;49698;48.072;7.800;2023-02-23T01:10:17;99074.78;;;9.66;90.39
63552;BME280;49698;48.072;7.800;2023-02-23T01:12:50;99075.88;;;9.65;90.27
63552;BME280;49698;48.072;7.800;2023-02-23T01:15:19;99068.06;;;9.63;90.73
63552;BME280;49698;48.072;7.800;2023-02-23T01:17:47;99075.34;;;9.63;90.36
63552;BME280;49698;48.072;7.800;2023-02-23T01:20:16;99064.09;;;9.61;90.54
63552;BME280;49698;48.072;7.800;2023-02-23T01:22:46;99071.63;;;9.59;90.52
63552;BME280;49698;48.072;7.800;2023-02-23T01:25:16;99060.88;;;9.59;90.71
63552;BME280;49698;48.072;7.800;2023-02-23T01:27:45;99064.66;;;9.58;90.73
63552;BME280;49698;48.072;7.800;2023-02-23T01:30:14;99065.75;;;9.57;90.55
63552;BME280;49698;48.072;7.800;2023-02-23T01:32:42;99072.97;;;9.56;90.64
63552;BME280;49698;48.072;7.800;2023-02-23T01:35:11;99069.50;;;9.55;90.67
63552;BME280;49698;48.072;7.800;2023-02-23T01:37:40;99062.53;;;9.54;90.64
63552;BME280;49698;48.072;7.800;2023-02-23T01:40:12;99067.09;;;9.54;91.04
63552;BME280;49698;48.072;7.800;2023-02-23T01:42:45;99061.22;;;9.52;90.64
63552;BME280;49698;48.072;7.800;2023-02-23T01:45:28;99060.97;;;9.48;91.09
63552;BME280;49698;48.072;7.800;2023-02-23T01:48:00;99052.72;;;9.45;90.96
63552;BME280;49698;48.072;7.800;2023-02-23T01:50:34;99053.53;;;9.40;91.22
63552;BME280;49698;48.072;7.800;2023-02-23T01:53:04;99057.88;;;9.36;91.37
63552;BME280;49698;48.072;7.800;2023-02-23T01:55:33;99058.44;;;9.33;91.35
63552;BME280;49698;48.072;7.800;2023-02-23T01:58:06;99058.22;;;9.29;91.33
63552;BME280;49698;48.072;7.800;2023-02-23T02:00:43;99053.97;;;9.23;91.73
63552;BME280;49698;48.072;7.800;2023-02-23T02:03:18;99051.13;;;9.15;91.85
63552;BME280;49698;48.072;7.800;2023-02-23T02:05:50;99049.06;;;9.06;92.04
63552;BME280;49698;48.072;7.800;2023-02-23T02:08:21;99046.97;;;8.98;92.38
63552;BME280;49698;48.072;7.800;2023-02-23T02:10:50;99045.91;;;8.94;92.56
63552;BME280;49698;48.072;7.800;2023-02-23T02:13:26;99044.06;;;8.90;92.72
63552;BME280;49698;48.072;7.800;2023-02-23T02:16:23;99040.34;;;8.86;93.09
63552;BME280;49698;48.072;7.800;2023-02-23T02:19:16;99049.78;;;8.83;92.96
63552;BME280;49698;48.072;7.800;2023-02-23T02:25:21;99042.03;;;8.76;93.00
63552;BME280;49698;48.072;7.800;2023-02-23T02:28:26;99043.38;;;8.74;93.16
63552;BME280;49698;48.072;7.800;2023-02-23T02:34:22;99033.22;;;8.71;93.62
63552;BME280;49698;48.072;7.800;2023-02-23T02:39:58;99033.28;;;8.66;94.17
63552;BME280;49698;48.072;7.800;2023-02-23T02:42:49;99031.69;;;8.65;94.02
63552;BME280;49698;48.072;7.800;2023-02-23T02:45:26;99018.53;;;8.63;94.07
63552;BME280;49698;48.072;7.800;2023-02-23T02:48:02;99023.91;;;8.63;93.84
63552;BME280;49698;48.072;7.800;2023-02-23T02:50:44;99026.88;;;8.62;94.06
63552;BME280;49698;48.072;7.800;2023-02-23T02:53:23;99025.28;;;8.61;94.31
63552;BME280;49698;48.072;7.800;2023-02-23T02:55:53;99028.22;;;8.59;94.36
63552;BME280;49698;48.072;7.800;2023-02-23T02:58:22;99022.06;;;8.58;94.67
63552;BME280;49698;48.072;7.800;2023-02-23T03:00:51;99025.81;;;8.57;94.67
63552;BME280;49698;48.072;7.800;2023-02-23T03:03:39;99025.81;;;8.57;94.54
63552;BME280;49698;48.072;7.800;2023-02-23T03:06:29;99023.16;;;8.57;94.80
63552;BME280;49698;48.072;7.800;2023-02-23T03:09:24;99029.31;;;8.58;94.71
63552;BME280;49698;48.072;7.800;2023-02-23T03:12:21;99025.81;;;8.57;94.66
63552;BME280;49698;48.072;7.800;2023-02-23T03:15:24;99021.00;;;8.60;95.18
63552;BME280;49698;48.072;7.800;2023-02-23T03:18:26;99014.56;;;8.61;94.51
63552;BME280;49698;48.072;7.800;2023-02-23T03:21:21;99010.00;;;8.61;94.75
63552;BME280;49698;48.072;7.800;2023-02-23T03:24:16;99016.94;;;8.62;94.52
63552;BME280;49698;48.072;7.800;2023-02-23T03:27:13;99016.16;;;8.62;94.83
63552;BME280;49698;48.072;7.800;2023-02-23T03:30:06;99021.50;;;8.62;95.08
63552;BME280;49698;48.072;7.800;2023-02-23T03:33:03;99026.88;;;8.62;95.30
63552;BME280;49698;48.072;7.800;2023-02-23T03:35:54;99017.75;;;8.63;95.25
63552;BME280;49698;48.072;7.800;2023-02-23T03:38:45;99011.59;;;8.62;95.14
63552;BME280;49698;48.072;7.800;2023-02-23T03:41:34;99016.16;;;8.62;95.43
63552;BME280;49698;48.072;7.800;2023-02-23T03:44:27;99010.78;;;8.62;95.07
63552;BME280;49698;48.072;7.800;2023-02-23T03:47:16;99020.72;;;8.61;95.05
63552;BME280;49698;48.072;7.800;2023-02-23T03:50:06;99019.91;;;8.61;95.38
63552;BME280;49698;48.072;7.800;2023-02-23T03:52:57;99017.78;;;8.57;96.00
63552;BME280;49698;48.072;7.800;2023-02-23T03:55:47;99015.91;;;8.58;95.28
63552;BME280;49698;48.072;7.800;2023-02-23T03:58:38;99015.13;;;8.57;95.59
63552;BME280;49698;48.072;7.800;2023-02-23T04:01:26;99022.34;;;8.57;95.76
63552;BME280;49698;48.072;7.800;2023-02-23T04:04:13;99022.59;;;8.55;95.55
63552;BME280;49698;48.072;7.800;2023-02-23T04:07:01;99019.44;;;8.53;95.79
63552;BME280;49698;48.072;7.800;2023-02-23T04:09:47;99013.53;;;8.51;95.87
63552;BME280;49698;48.072;7.800;2023-02-23T04:12:36;99011.94;;;8.50;95.87
63552;BME280;49698;48.072;7.800;2023-02-23T04:15:27;99017.59;;;8.49;95.76
63552;BME280;49698;48.072;7.800;2023-02-23T04:17:56;99022.16;;;8.48;96.03
63552;BME280;49698;48.072;7.800;2023-02-23T04:20:26;99018.94;;;8.46;95.73
63552;BME280;49698;48.072;7.800;2023-02-23T04:22:54;99021.91;;;8.45;96.14
63552;BME280;49698;48.072;7.800;2023-02-23T04:25:22;99020.28;;;8.44;96.05
63552;BME280;49698;48.072;7.800;2023-02-23T04:27:50;99021.66;;;8.41;96.15
63552;BME280;49698;48.072;7.800;2023-02-23T04:30:18;99020.84;;;8.41;96.17
63552;BME280;49698;48.072;7.800;2023-02-23T04:32:51;99013.38;;;8.38;96.31
63552;BME280;49698;48.072;7.800;2023-02-23T04:35:21;99012.56;;;8.32;96.40
63552;BME280;49698;48.072;7.800;2023-02-23T04:37:49;99015.28;;;8.27;96.48
63552;BME280;49698;48.072;7.800;2023-02-23T04:40:17;99015.81;;;8.24;96.40
63552;BME280;49698;48.072;7.800;2023-02-23T04:42:45;99025.47;;;8.20;96.75
63552;BME280;49698;48.072;7.800;2023-02-23T04:45:13;99019.06;;;8.16;96.84
63552;BME280;49698;48.072;7.800;2023-02-23T04:47:41;99022.03;;;8.14;96.94
63552;BME280;49698;48.072;7.800;2023-02-23T04:50:10;99030.91;;;8.09;96.89
63552;BME280;49698;48.072;7.800;2023-02-23T04:52:39;99023.97;;;8.03;97.19
63552;BME280;49698;48.072;7.800;2023-02-23T04:55:14;99021.03;;;8.00;97.49
63552;BME280;49698;48.072;7.800;2023-02-23T04:57:42;99017.31;;;7.96;97.23
63552;BME280;49698;48.072;7.800;2023-02-23T05:00:12;99022.94;;;7.94;97.27
63552;BME280;49698;48.072;7.800;2023-02-23T05:02:40;99027.50;;;7.94;97.35
63552;BME280;49698;48.072;7.800;2023-02-23T05:05:08;99020.53;;;7.93;97.52
63552;BME280;49698;48.072;7.800;2023-02-23T05:07:36;99020.00;;;7.91;97.43
63552;BME280;49698;48.072;7.800;2023-02-23T05:10:07;99020.28;;;7.89;97.57
63552;BME280;49698;48.072;7.800;2023-02-23T05:12:35;99019.47;;;7.89;97.44
63552;BME280;49698;48.072;7.800;2023-02-23T05:15:04;99025.63;;;7.89;97.27
63552;BME280;49698;48.072;7.800;2023-02-23T05:17:32;99027.78;;;7.87;97.56
63552;BME280;49698;48.072;7.800;2023-02-23T05:20:00;99024.03;;;7.88;97.48
63552;BME280;49698;48.072;7.800;2023-02-23T05:22:28;99020.28;;;7.89;97.31
63552;BME280;49698;48.072;7.800;2023-02-23T05:24:56;99022.16;;;7.89;97.31
63552;BME280;49698;48.072;7.800;2023-02-23T05:27:25;99011.19;;;7.90;97.22
63552;BME280;49698;48.072;7.800;2023-02-23T05:29:53;99016.00;;;7.88;97.33
63552;BME280;49698;48.072;7.800;2023-02-23T05:32:21;99018.16;;;7.86;97.43
63552;BME280;49698;48.072;7.800;2023-02-23T05:34:49;99017.63;;;7.84;97.55
63552;BME280;49698;48.072;7.800;2023-02-23T05:37:17;99021.09;;;7.84;97.33
63552;BME280;49698;48.072;7.800;2023-02-23T05:39:45;99017.63;;;7.84;97.77
63552;BME280;49698;48.072;7.800;2023-02-23T05:42:13;99019.22;;;7.85;97.85
63552;BME280;49698;48.072;7.800;2023-02-23T05:44:43;99016.28;;;7.87;97.40
63552;BME280;49698;48.072;7.800;2023-02-23T05:47:11;99022.44;;;7.87;97.37
63552;BME280;49698;48.072;7.800;2023-02-23T05:49:39;99022.94;;;7.89;97.21
63552;BME280;49698;48.072;7.800;2023-02-23T05:52:07;99023.50;;;7.91;97.39
63552;BME280;49698;48.072;7.800;2023-02-23T05:54:35;99023.50;;;7.91;97.40
63552;BME280;49698;48.072;7.800;2023-02-23T05:57:03;99025.09;;;7.92;97.54
63552;BME280;49698;48.072;7.800;2023-02-23T05:59:31;99025.88;;;7.93;97.32
63552;BME280;49698;48.072;7.800;2023-02-23T06:02:00;99023.75;;;7.95;97.26
63552;BME280;49698;48.072;7.800;2023-02-23T06:04:30;99021.88;;;7.95;97.08
63552;BME280;49698;48.072;7.800;2023-02-23T06:06:58;99024.53;;;7.95;97.12
63552;BME280;49698;48.072;7.800;2023-02-23T06:09:26;99030.69;;;7.96;97.43
63552;BME280;49698;48.072;7.800;2023-02-23T06:11:54;99030.41;;;7.97;97.22
63552;BME280;49698;48.072;7.800;2023-02-23T06:14:22;99030.41;;;7.97;97.08
63552;BME280;49698;48.072;7.800;2023-02-23T06:16:50;99032.03;;;7.98;97.19
63552;BME280;49698;48.072;7.800;2023-02-23T06:19:19;99030.94;;;7.99;97.27
63552;BME280;49698;48.072;7.800;2023-02-23T06:21:48;99033.34;;;8.01;97.15
63552;BME280;49698;48.072;7.800;2023-02-23T06:24:16;99030.41;;;8.02;97.28
63552;BME280;49698;48.072;7.800;2023-02-23T06:26:44;99035.22;;;8.05;97.22
63552;BME280;49698;48.072;7.800;2023-02-23T06:29:12;99036.81;;;8.06;97.06
63552;BME280;49698;48.072;7.800;2023-02-23T06:31:41;99038.13;;;8.09;96.84
63552;BME280;49698;48.072;7.800;2023-02-23T06:34:09;99037.06;;;8.10;96.95
63552;BME280;49698;48.072;7.800;2023-02-23T06:36:39;99046.41;;;8.13;96.77
63552;BME280;49698;48.072;7.800;2023-02-23T06:39:09;99042.66;;;8.14;96.90
63552;BME280;49698;48.072;7.800;2023-02-23T06:41:37;99047.44;;;8.17;96.85
63552;BME280;49698;48.072;7.800;2023-02-23T06:44:05;99051.75;;;8.18;96.90
63552;BME280;49698;48.072;7.800;2023-02-23T06:46:34;99055.22;;;8.18;96.94
63552;BME280;49698;48.072;7.800;2023-02-23T06:49:02;99052.25;;;8.20;96.78
63552;BME280;49698;48.072;7.800;2023-02-23T06:51:30;99067.22;;;8.21;96.71
63552;BME280;49698;48.072;7.800;2023-02-23T06:53:59;99061.63;;;8.22;96.83
63552;BME280;49698;48.072;7.800;2023-02-23T06:56:27;99072.03;;;8.24;96.80
63552;BME280;49698;48.072;7.800;2023-02-23T06:58:55;99073.66;;;8.25;96.50
63552;BME280;49698;48.072;7.800;2023-02-23T07:01:23;99076.56;;;8.28;96.66
63552;BME280;49698;48.072;7.800;2023-02-23T07:03:51;99067.47;;;8.29;96.78
63552;BME280;49698;48.072;7.800;2023-02-23T07:06:19;99069.88;;;8.31;96.76
63552;BME280;49698;48.072;7.800;2023-02-23T07:08:47;99069.31;;;8.34;96.76
63552;BME280;49698;48.072;7.800;2023-02-23T07:11:17;99081.38;;;8.37;96.81
63552;BME280;49698;48.072;7.800;2023-02-23T07:13:45;99074.97;;;8.38;96.89
63552;BME280;49698;48.072;7.800;2023-02-23T07:16:13;99074.41;;;8.41;96.95
63552;BME280;49698;48.072;7.800;2023-02-23T07:18:42;99076.25;;;8.45;96.96
63552;BME280;49698;48.072;7.800;2023-02-23T07:21:10;99079.44;;;8.47;96.89
63552;BME280;49698;48.072;7.800;2023-02-23T07:23:37;99073.28;;;8.52;97.04
63552;BME280;49698;48.072;7.800;2023-02-23T07:26:05;99073.50;;;8.55;97.13
63552;BME280;49698;48.072;7.800;2023-02-23T07:28:34;99078.84;;;8.61;97.06
63552;BME280;49698;48.072;7.800;2023-02-23T07:31:04;99078.03;;;8.65;97.01
63552;BME280;49698;48.072;7.800;2023-02-23T07:33:32;99080.94;;;8.69;97.07
63552;BME280;49698;48.072;7.800;2023-02-23T07:35:59;99084.38;;;8.74;96.58
63552;BME280;49698;48.072;7.800;2023-02-23T07:38:28;99081.41;;;8.81;96.56
63552;BME280;49698;48.072;7.800;2023-02-23T07:40:55;99092.88;;;8.87;96.14
63552;BME280;49698;48.072;7.800;2023-02-23T07:43:23;99087.75;;;8.90;96.10
63552;BME280;49698;48.072;7.800;2023-02-23T07:45:53;99088.78;;;8.94;96.09
63552;BME280;49698;48.072;7.800;2023-02-23T07:48:21;99089.03;;;8.98;96.14
63552;BME280;49698;48.072;7.800;2023-02-23T07:50:49;99090.06;;;9.02;96.16
63552;BME280;49698;48.072;7.800;2023-02-23T07:53:17;99090.31;;;9.05;95.91
63552;BME280;49698;48.072;7.800;2023-02-23T07:55:44;99089.78;;;9.09;96.12
63552;BME280;49698;48.072;7.800;2023-02-23T07:58:12;99090.31;;;9.11;95.83
63552;BME280;49698;48.072;7.800;2023-02-23T08:00:40;99083.28;;;9.15;95.96
63552;BME280;49698;48.072;7.800;2023-02-23T08:03:10;99092.88;;;9.21;95.52
63552;BME280;49698;48.072;7.800;2023-02-23T08:05:38;99091.78;;;9.27;95.22
63552;BME280;49698;48.072;7.800;2023-02-23T08:08:06;99086.34;;;9.32;95.69
63552;BME280;49698;48.072;7.800;2023-02-23T08:10:34;99085.25;;;9.33;95.93
63552;BME280;49698;48.072;7.800;2023-02-23T08:13:02;99084.69;;;9.36;95.51
63552;BME280;49698;48.072;7.800;2023-02-23T08:15:31;99087.38;;;9.41;95.40
63552;BME280;49698;48.072;7.800;2023-02-23T08:17:59;99096.16;;;9.47;95.58
63552;BME280;49698;48.072;7.800;2023-02-23T08:20:28;99101.19;;;9.53;95.25
63552;BME280;49698;48.072;7.800;2023-02-23T08:22:57;99095.75;;;9.59;94.67
63552;BME280;49698;48.072;7.800;2023-02-23T08:25:25;99097.09;;;9.61;95.17
63552;BME280;49698;48.072;7.800;2023-02-23T08:27:53;99109.66;;;9.66;94.90
63552;BME280;49698;48.072;7.800;2023-02-23T08:30:22;99102.56;;;9.75;94.98
63552;BME280;49698;48.072;7.800;2023-02-23T08:32:50;99100.09;;;9.84;94.81
63552;BME280;49698;48.072;7.800;2023-02-23T08:35:18;99108.06;;;9.89;94.53
63552;BME280;49698;48.072;7.800;2023-02-23T08:37:48;99103.16;;;9.96;94.38
63552;BME280;49698;48.072;7.800;2023-02-23T08:40:16;99097.44;;;10.02;94.07
63552;BME280;49698;48.072;7.800;2023-02-23T08:42:46;99096.00;;;10.10;93.90
63552;BME280;49698;48.072;7.800;2023-02-23T08:45:18;99096.19;;;10.19;93.31
63552;BME280;49698;48.072;7.800;2023-02-23T08:47:46;99092.91;;;10.27;93.16
63552;BME280;49698;48.072;7.800;2023-02-23T08:50:14;99088.47;;;10.36;93.01
63552;BME280;49698;48.072;7.800;2023-02-23T08:52:42;99094.22;;;10.48;92.51
63552;BME280;49698;48.072;7.800;2023-02-23T08:55:11;99095.63;;;10.65;92.21
63552;BME280;49698;48.072;7.800;2023-02-23T08:57:39;99090.00;;;10.80;91.62
63552;BME280;49698;48.072;7.800;2023-02-23T09:00:08;99101.63;;;10.94;91.02
63552;BME280;49698;48.072;7.800;2023-02-23T09:02:40;99092.00;;;11.07;90.27
63552;BME280;49698;48.072;7.800;2023-02-23T09:05:09;99093.75;;;11.17;90.10
63552;BME280;49698;48.072;7.800;2023-02-23T09:07:38;99101.38;;;11.29;89.55
63552;BME280;49698;48.072;7.800;2023-02-23T09:10:12;99103.06;;;11.38;89.03
63552;BME280;49698;48.072;7.800;2023-02-23T09:12:41;99103.50;;;11.45;88.82
63552;BME280;49698;48.072;7.800;2023-02-23T09:15:09;99107.03;;;11.60;88.30
63552;BME280;49698;48.072;7.800;2023-02-23T09:17:38;99098.47;;;11.71;87.82
63552;BME280;49698;48.072;7.800;2023-02-23T09:20:09;99102.88;;;11.81;87.40
63552;BME280;49698;48.072;7.800;2023-02-23T09:22:42;99103.81;;;11.90;86.91
63552;BME280;49698;48.072;7.800;2023-02-23T09:25:16;99109.50;;;12.03;86.42
63552;BME280;49698;48.072;7.800;2023-02-23T09:27:44;99104.78;;;12.22;85.80
63552;BME280;49698;48.072;7.800;2023-02-23T09:30:13;99103.88;;;12.40;84.54
63552;BME280;49698;48.072;7.800;2023-02-23T09:32:43;99104.03;;;12.58;84.01
63552;BME280;49698;48.072;7.800;2023-02-23T09:35:12;99108.75;;;12.88;82.87
63552;BME280;49698;48.072;7.800;2023-02-23T09:37:43;99101.06;;;13.18;81.67
63552;BME280;49698;48.072;7.800;2023-02-23T09:40:16;99112.31;;;13.34;80.84
63552;BME280;49698;48.072;7.800;2023-02-23T09:42:54;99108.81;;;13.33;80.53
63552;BME280;49698;48.072;7.800;2023-02-23T09:45:28;99107.09;;;13.37;80.22
63552;BME280;49698;48.072;7.800;2023-02-23T09:48:08;99105.44;;;13.59;79.51
63552;BME280;49698;48.072;7.800;2023-02-23T09:50:37;99100.22;;;13.93;77.91
63552;BME280;49698;48.072;7.800;2023-02-23T09:53:13;99104.94;;;14.28;76.62
63552;BME280;49698;48.072;7.800;2023-02-23T09:55:46;99103.63;;;14.65;75.42
63552;BME280;49698;48.072;7.800;2023-02-23T09:58:19;99101.09;;;14.95;74.11
63552;BME280;49698;48.072;7.800;2023-02-23T10:01:01;99099.31;;;15.16;73.32
63552;BME280;49698;48.072;7.800;2023-02-23T10:03:34;99101.34;;;15.36;72.27
63552;BME280;49698;48.072;7.800;2023-02-23T10:06:08;99101.34;;;15.45;71.86
63552;BME280;49698;48.072;7.800;2023-02-23T10:08:44;99104.06;;;15.45;71.69
63552;BME280;49698;48.072;7.800;2023-02-23T10:11:27;99099.41;;;15.54;71.14
63552;BME280;49698;48.072;7.800;2023-02-23T10:14:18;99100.16;;;15.63;70.59
63552;BME280;49698;48.072;7.800;2023-02-23T10:16:59;99097.28;;;15.77;69.40
63552;BME280;49698;48.072;7.800;2023-02-23T10:19:35;99092.38;;;15.71;68.91
63552;BME280;49698;48.072;7.800;2023-02-23T10:22:11;99088.41;;;15.68;68.88
63552;BME280;49698;48.072;7.800;2023-02-23T10:24:42;99092.22;;;15.67;68.53
63552;BME280;49698;48.072;7.800;2023-02-23T10:27:15;99085.81;;;15.72;68.53
63552;BME280;49698;48.072;7.800;2023-02-23T10:29:47;99085.97;;;15.75;68.37
63552;BME280;49698;48.072;7.800;2023-02-23T10:32:19;99082.16;;;15.76;68.27
63552;BME280;49698;48.072;7.800;2023-02-23T10:34:53;99083.88;;;15.81;67.69
63552;BME280;49698;48.072;7.800;2023-02-23T10:37:22;99082.16;;;15.76;67.63
63552;BME280;49698;48.072;7.800;2023-02-23T10:39:51;99087.59;;;15.76;67.35
63552;BME280;49698;48.072;7.800;2023-02-23T10:42:23;99094.09;;;15.75;66.97
63552;BME280;49698;48.072;7.800;2023-02-23T10:44:55;99090.09;;;15.81;66.89
63552;BME280;49698;48.072;7.800;2023-02-23T10:47:25;99086.56;;;15.89;66.56
63552;BME280;49698;48.072;7.800;2023-02-23T10:49:56;99087.19;;;15.86;66.40
63552;BME280;49698;48.072;7.800;2023-02-23T10:52:28;99081.63;;;15.83;66.21
63552;BME280;49698;48.072;7.800;2023-02-23T10:54:58;99079.91;;;15.78;66.23
63552;BME280;49698;48.072;7.800;2023-02-23T10:57:29;99081.34;;;15.84;66.26
63552;BME280;49698;48.072;7.800;2023-02-23T11:00:21;99071.03;;;15.99;65.64
63552;BME280;49698;48.072;7.800;2023-02-23T11:02:54;99078.16;;;16.12;65.04
63552;BME280;49698;48.072;7.800;2023-02-23T11:05:31;99073.75;;;15.99;65.01
63552;BME280;49698;48.072;7.800;2023-02-23T11:08:21;99070.94;;;15.86;65.34
63552;BME280;49698;48.072;7.800;2023-02-23T11:11:17;99076.16;;;16.00;64.74
63552;BME280;49698;48.072;7.800;2023-02-23T11:13:49;99076.84;;;16.18;64.24
63552;BME280;49698;48.072;7.800;2023-02-23T11:16:19;99071.16;;;16.11;63.86
63552;BME280;49698;48.072;7.800;2023-02-23T11:18:50;99069.94;;;16.00;64.22
63552;BME280;49698;48.072;7.800;2023-02-23T11:21:25;99067.03;;;16.05;63.98
63552;BME280;49698;48.072;7.800;2023-02-23T11:23:56;99066.38;;;16.08;63.46
63552;BME280;49698;48.072;7.800;2023-02-23T11:26:32;99062.53;;;16.09;63.03
63552;BME280;49698;48.072;7.800;2023-02-23T11:29:15;99062.63;;;16.21;62.63
63552;BME280;49698;48.072;7.800;2023-02-23T11:31:49;99070.41;;;16.31;62.53
63552;BME280;49698;48.072;7.800;2023-02-23T11:34:27;99071.47;;;16.39;62.25
63552;BME280;49698;48.072;7.800;2023-02-23T11:37:02;99062.47;;;16.47;61.39
63552;BME280;49698;48.072;7.800;2023-02-23T11:39:31;99059.81;;;16.59;60.98
63552;BME280;49698;48.072;7.800;2023-02-23T11:42:17;99059.78;;;16.89;60.02
63552;BME280;49698;48.072;7.800;2023-02-23T11:44:51;99057.94;;;17.14;58.96
63552;BME280;49698;48.072;7.800;2023-02-23T11:47:20;99060.50;;;17.31;57.78
63552;BME280;49698;48.072;7.800;2023-02-23T11:49:49;99051.31;;;17.24;57.53
63552;BME280;49698;48.072;7.800;2023-02-23T11:52:19;99046.13;;;17.31;57.26
63552;BME280;49698;48.072;7.800;2023-02-23T11:54:52;99052.16;;;17.49;56.55
63552;BME280;49698;48.072;7.800;2023-02-23T11:57:22;99042.69;;;17.67;56.13
63552;BME280;49698;48.072;7.800;2023-02-23T11:59:53;99049.69;;;17.68;56.12
63552;BME280;49698;48.072;7.800;2023-02-23T12:02:24;99045.50;;;17.58;56.17
63552;BME280;49698;48.072;7.800;2023-02-23T12:05:01;99045.50;;;17.46;56.48
63552;BME280;49698;48.072;7.800;2023-02-23T12:07:35;99039.53;;;17.20;56.71
63552;BME280;49698;48.072;7.800;2023-02-23T12:10:15;99038.69;;;17.07;57.10
63552;BME280;49698;48.072;7.800;2023-02-23T12:12:53;99038.66;;;16.95;57.06
63552;BME280;49698;48.072;7.800;2023-02-23T12:15:33;99043.81;;;16.87;57.61
63552;BME280;49698;48.072;7.800;2023-02-23T12:18:11;99045.03;;;16.78;57.49
63552;BME280;49698;48.072;7.800;2023-02-23T12:20:44;99031.91;;;16.59;57.71
63552;BME280;49698;48.072;7.800;2023-02-23T12:23:17;99034.28;;;16.39;58.00
63552;BME280;49698;48.072;7.800;2023-02-23T12:25:49;99028.31;;;16.25;57.91
63552;BME280;49698;48.072;7.800;2023-02-23T12:28:23;99032.81;;;16.21;58.15
63552;BME280;49698;48.072;7.800;2023-02-23T12:30:57;99028.97;;;16.22;58.06
63552;BME280;49698;48.072;7.800;2023-02-23T12:33:33;99021.16;;;16.21;57.59
63552;BME280;49698;48.072;7.800;2023-02-23T12:36:10;99023.75;;;16.17;57.48
63552;BME280;49698;48.072;7.800;2023-02-23T12:38:48;99019.06;;;16.26;57.44
63552;BME280;49698;48.072;7.800;2023-02-23T12:41:31;99016.88;;;16.41;57.08
63552;BME280;49698;48.072;7.800;2023-02-23T12:44:07;99015.34;;;16.52;56.77
63552;BME280;49698;48.072;7.800;2023-02-23T12:46:45;99017.19;;;16.60;56.60
63552;BME280;49698;48.072;7.800;2023-02-23T12:49:18;99017.47;;;16.67;56.49
63552;BME280;49698;48.072;7.800;2023-02-23T12:51:52;99012.50;;;16.69;56.20
63552;BME280;49698;48.072;7.800;2023-02-23T12:54:21;99013.47;;;16.73;55.83
63552;BME280;49698;48.072;7.800;2023-02-23T12:56:57;99017.41;;;16.76;55.39
63552;BME280;49698;48.072;7.800;2023-02-23T12:59:43;99010.06;;;16.76;55.00
63552;BME280;49698;48.072;7.800;2023-02-23T13:02:19;99016.31;;;16.77;55.05
63552;BME280;49698;48.072;7.800;2023-02-23T13:05:14;99009.28;;;16.76;54.75
63552;BME280;49698;48.072;7.800;2023-02-23T13:07:50;99012.34;;;16.74;54.78
63552;BME280;49698;48.072;7.800;2023-02-23T13:10:35;99007.59;;;16.83;54.62
63552;BME280;49698;48.072;7.800;2023-02-23T13:13:19;98997.00;;;16.91;54.14
63552;BME280;49698;48.072;7.800;2023-02-23T13:15:55;98996.00;;;16.95;54.20
63552;BME280;49698;48.072;7.800;2023-02-23T13:18:31;99002.22;;;16.96;54.01
63552;BME280;49698;48.072;7.800;2023-02-23T13:21:07;99002.66;;;16.85;54.06
63552;BME280;49698;48.072;7.800;2023-02-23T13:23:39;98995.63;;;16.63;54.62
63552;BME280;49698;48.072;7.800;2023-02-23T13:26:15;98998.63;;;16.50;55.13
63552;BME280;49698;48.072;7.800;2023-02-23T13:28:51;98994.03;;;16.42;55.71
63552;BME280;49698;48.072;7.800;2023-02-23T13:31:24;98995.72;;;16.34;55.99
63552;BME280;49698;48.072;7.800;2023-02-23T13:33:56;98992.41;;;16.28;56.75
63552;BME280;49698;48.072;7.800;2023-02-23T13:36:26;98989.56;;;16.25;56.63
63552;BME280;49698;48.072;7.800;2023-02-23T13:39:09;98991.00;;;16.22;56.80
63552;BME280;49698;48.072;7.800;2023-02-23T13:41:49;98996.25;;;16.27;56.88
63552;BME280;49698;48.072;7.800;2023-02-23T13:44:24;98996.53;;;16.34;56.54
63552;BME280;49698;48.072;7.800;2023-02-23T13:46:56;98987.03;;;16.41;56.21
63552;BME280;49698;48.072;7.800;2023-02-23T13:49:36;98990.38;;;16.46;55.85